Overview Statistics Trail Chart Weather Telemetry Raw packets
 

This is the latest recevied weather packets stored in our database for station/object OE6ATD-13. If no packets are shown the sender has not sent any weather packets the latest 10 day(s).

<< 5 6 7 8 9 10 11 >>
Time Temp. Humidity Pressure Rain* Wind** Luminosity Snow
1788606017 24.44° C 50% 1020.1 hPa 0 mm - 250 W/m² -
1788605428 23.89° C 50% 1020 hPa 0 mm - 185 W/m² -
1788604824 23.89° C 49% 1020.2 hPa 0 mm - 125 W/m² -
1788604219 24.44° C 47% 1020 hPa 0 mm - 228 W/m² -
1788603615 25° C 47% 1020.1 hPa 0 mm - 259 W/m² -
1788603049 25° C 47% 1020 hPa 0 mm - 431 W/m² -
1788602422 25° C 46% 1020 hPa 0 mm - 502 W/m² -
1788601818 25° C 46% 1019.9 hPa 0 mm - 559 W/m² -
1788601228 24.44° C 46% 1019.7 hPa 0 mm - 701 W/m² -
1788600625 23.33° C 49% 1019.8 hPa 0 mm - 612 W/m² -
1788600021 23.89° C 50% 1019.9 hPa 0 mm - 192 W/m² -
1788599416 23.89° C 51% 1019.8 hPa 0 mm - 257 W/m² -
1788598827 23.33° C 52% 1019.7 hPa 0 mm - 418 W/m² -
1788598223 23.33° C 52% 1019.5 hPa 0 mm - 167 W/m² -
1788597618 23.89° C 54% 1019.4 hPa 0 mm - 227 W/m² -
1788597029 23.89° C 58% 1019.1 hPa 0 mm - 259 W/m² -
1788596425 23.89° C 59% 1018.9 hPa 0 mm - 144 W/m² -
1788595821 23.89° C 60% 1018.7 hPa 0 mm - 123 W/m² -
1788595217 24.44° C 60% 1018.4 hPa 0 mm - 161 W/m² -
1788594628 25° C 60% 1018.1 hPa 0 mm - 197 W/m² -
1788594024 25.56° C 62% 1017.8 hPa 0 mm - 402 W/m² -
1788593419 23.89° C 69% 1017.6 hPa 0 mm - 574 W/m² -
1788592820 22.78° C 71% 1016.9 hPa 0 mm - 284 W/m² -
1788592226 22.78° C 71% 1016.6 hPa 0 mm - 153 W/m² -
1788591622 22.22° C 72% 1016.4 hPa 0 mm - 184 W/m² -

* Rain latest hour (hover to see other rain measurements)
** Current wind speed in m/s (hover to see current wind gust speed)